sensor_id;sensor_type;location;lat;lon;timestamp;pressure;altitude;pressure_sealevel;temperature;humidity
7586;BME280;12459;42.646;23.292;2023-02-21T00:03:19;94021.41;;;10.73;100.00
7586;BME280;12459;42.646;23.292;2023-02-21T00:18:39;94015.66;;;10.71;100.00
7586;BME280;12459;42.646;23.292;2023-02-21T00:33:59;93978.94;;;10.68;100.00
7586;BME280;12459;42.646;23.292;2023-02-21T00:49:20;93994.22;;;10.71;100.00
7586;BME280;12459;42.646;23.292;2023-02-21T01:04:40;93959.00;;;10.69;100.00
7586;BME280;12459;42.646;23.292;2023-02-21T01:20:00;93930.69;;;10.68;100.00
7586;BME280;12459;42.646;23.292;2023-02-21T01:35:20;93919.97;;;10.68;100.00
7586;BME280;12459;42.646;23.292;2023-02-21T01:50:41;93911.16;;;10.68;100.00
7586;BME280;12459;42.646;23.292;2023-02-21T02:06:02;93884.75;;;10.66;100.00
7586;BME280;12459;42.646;23.292;2023-02-21T02:36:43;93872.91;;;10.64;100.00
7586;BME280;12459;42.646;23.292;2023-02-21T02:51:48;93861.81;;;10.62;100.00
7586;BME280;12459;42.646;23.292;2023-02-21T03:06:56;93861.81;;;10.62;100.00
7586;BME280;12459;42.646;23.292;2023-02-21T03:22:04;93842.69;;;10.60;100.00
7586;BME280;12459;42.646;23.292;2023-02-21T03:37:07;93846.16;;;10.57;100.00
7586;BME280;12459;42.646;23.292;2023-02-21T03:52:12;93858.81;;;10.56;100.00
7586;BME280;12459;42.646;23.292;2023-02-21T04:07:15;93871.06;;;10.53;100.00
7586;BME280;12459;42.646;23.292;2023-02-21T04:22:17;93896.38;;;10.49;100.00
7586;BME280;12459;42.646;23.292;2023-02-21T04:37:18;93891.81;;;10.46;100.00
7586;BME280;12459;42.646;23.292;2023-02-21T04:52:20;93905.56;;;10.48;100.00
7586;BME280;12459;42.646;23.292;2023-02-21T05:07:21;93858.53;;;10.43;100.00
7586;BME280;12459;42.646;23.292;2023-02-21T05:22:23;93848.94;;;10.46;100.00
7586;BME280;12459;42.646;23.292;2023-02-21T05:37:25;93842.06;;;10.45;100.00
7586;BME280;12459;42.646;23.292;2023-02-21T05:52:26;93862.59;;;10.62;100.00
7586;BME280;12459;42.646;23.292;2023-02-21T06:07:28;93903.53;;;10.66;100.00
7586;BME280;12459;42.646;23.292;2023-02-21T06:22:30;93900.38;;;10.75;100.00
7586;BME280;12459;42.646;23.292;2023-02-21T06:37:31;93906.09;;;10.80;100.00
7586;BME280;12459;42.646;23.292;2023-02-21T06:52:33;93901.41;;;10.88;99.65
7586;BME280;12459;42.646;23.292;2023-02-21T07:07:34;93896.78;;;10.92;99.25
7586;BME280;12459;42.646;23.292;2023-02-21T07:22:36;93910.97;;;10.93;99.27
7586;BME280;12459;42.646;23.292;2023-02-21T07:37:37;93888.34;;;10.94;98.78
7586;BME280;12459;42.646;23.292;2023-02-21T07:52:39;93878.38;;;10.94;98.50
7586;BME280;12459;42.646;23.292;2023-02-21T08:07:40;93875.31;;;10.96;98.84
7586;BME280;12459;42.646;23.292;2023-02-21T08:22:42;93871.81;;;10.99;98.86
7586;BME280;12459;42.646;23.292;2023-02-21T08:37:46;93865.25;;;11.07;100.00
7586;BME280;12459;42.646;23.292;2023-02-21T08:52:48;93857.56;;;11.09;100.00
7586;BME280;12459;42.646;23.292;2023-02-21T09:07:50;93866.75;;;11.08;100.00
7586;BME280;12459;42.646;23.292;2023-02-21T09:22:55;93848.34;;;11.10;100.00
7586;BME280;12459;42.646;23.292;2023-02-21T09:37:57;93831.81;;;11.15;100.00
7586;BME280;12459;42.646;23.292;2023-02-21T09:52:59;93827.50;;;11.25;100.00
7586;BME280;12459;42.646;23.292;2023-02-21T10:23:02;93776.00;;;11.37;100.00
7586;BME280;12459;42.646;23.292;2023-02-21T10:38:18;93749.13;;;11.40;100.00
7586;BME280;12459;42.646;23.292;2023-02-21T11:09:42;93706.13;;;11.47;100.00
7586;BME280;12459;42.646;23.292;2023-02-21T11:24:45;93678.41;;;11.54;100.00
7586;BME280;12459;42.646;23.292;2023-02-21T11:39:50;93659.53;;;11.61;100.00
7586;BME280;12459;42.646;23.292;2023-02-21T11:54:52;93641.84;;;11.64;100.00
7586;BME280;12459;42.646;23.292;2023-02-21T12:10:01;93623.00;;;11.67;100.00
7586;BME280;12459;42.646;23.292;2023-02-21T12:55:23;93561.44;;;11.80;96.59
7586;BME280;12459;42.646;23.292;2023-02-21T13:10:47;93546.72;;;11.88;93.66
7586;BME280;12459;42.646;23.292;2023-02-21T13:40:53;93512.72;;;12.01;89.76
7586;BME280;12459;42.646;23.292;2023-02-21T14:26:36;93494.31;;;12.20;86.99
7586;BME280;12459;42.646;23.292;2023-02-21T14:56:44;93497.69;;;12.24;84.36
7586;BME280;12459;42.646;23.292;2023-02-21T15:11:47;93489.97;;;12.26;83.43
7586;BME280;12459;42.646;23.292;2023-02-21T15:26:49;93488.69;;;12.14;84.69
7586;BME280;12459;42.646;23.292;2023-02-21T15:42:08;93508.31;;;12.11;85.62
7586;BME280;12459;42.646;23.292;2023-02-21T15:57:22;93519.63;;;12.02;86.27
7586;BME280;12459;42.646;23.292;2023-02-21T16:12:27;93529.31;;;11.96;87.07
7586;BME280;12459;42.646;23.292;2023-02-21T16:27:29;93535.94;;;11.92;87.77
7586;BME280;12459;42.646;23.292;2023-02-21T16:42:31;93539.72;;;11.94;87.74
7586;BME280;12459;42.646;23.292;2023-02-21T16:57:32;93553.56;;;11.93;88.22
7586;BME280;12459;42.646;23.292;2023-02-21T17:12:34;93544.75;;;11.92;87.67
7586;BME280;12459;42.646;23.292;2023-02-21T17:27:35;93555.13;;;11.90;87.43
7586;BME280;12459;42.646;23.292;2023-02-21T17:42:37;93549.69;;;11.94;86.98
7586;BME280;12459;42.646;23.292;2023-02-21T17:57:39;93564.28;;;11.93;85.94
7586;BME280;12459;42.646;23.292;2023-02-21T18:12:41;93558.78;;;11.80;87.25
7586;BME280;12459;42.646;23.292;2023-02-21T18:27:42;93573.81;;;11.74;88.45
7586;BME280;12459;42.646;23.292;2023-02-21T18:42:44;93571.53;;;11.72;89.20
7586;BME280;12459;42.646;23.292;2023-02-21T18:57:48;93574.06;;;11.83;88.82
7586;BME280;12459;42.646;23.292;2023-02-21T19:12:51;93583.38;;;11.75;89.18
7586;BME280;12459;42.646;23.292;2023-02-21T19:27:53;93590.25;;;11.76;89.44
7586;BME280;12459;42.646;23.292;2023-02-21T19:43:01;93608.25;;;11.79;89.29
7586;BME280;12459;42.646;23.292;2023-02-21T19:58:03;93616.66;;;11.81;88.69
7586;BME280;12459;42.646;23.292;2023-02-21T20:13:07;93615.16;;;11.80;88.04
7586;BME280;12459;42.646;23.292;2023-02-21T20:28:09;93627.41;;;11.81;87.81
7586;BME280;12459;42.646;23.292;2023-02-21T20:43:10;93636.72;;;11.73;88.37
7586;BME280;12459;42.646;23.292;2023-02-21T20:58:13;93623.00;;;11.67;89.92
7586;BME280;12459;42.646;23.292;2023-02-21T21:13:15;93612.16;;;11.74;89.43
7586;BME280;12459;42.646;23.292;2023-02-21T21:28:16;93592.19;;;11.75;88.19
7586;BME280;12459;42.646;23.292;2023-02-21T21:43:18;93595.25;;;11.77;87.17
7586;BME280;12459;42.646;23.292;2023-02-21T21:58:19;93596.03;;;11.74;88.21
7586;BME280;12459;42.646;23.292;2023-02-21T22:13:21;93589.91;;;11.74;87.21
7586;BME280;12459;42.646;23.292;2023-02-21T22:28:22;93593.75;;;11.73;87.38
7586;BME280;12459;42.646;23.292;2023-02-21T22:43:26;93581.03;;;11.77;87.23
7586;BME280;12459;42.646;23.292;2023-02-21T22:58:28;93582.13;;;11.83;85.39
7586;BME280;12459;42.646;23.292;2023-02-21T23:13:29;93620.53;;;11.80;85.05
7586;BME280;12459;42.646;23.292;2023-02-21T23:28:31;93607.88;;;11.77;86.61
7586;BME280;12459;42.646;23.292;2023-02-21T23:43:35;93629.13;;;11.68;87.29
7586;BME280;12459;42.646;23.292;2023-02-21T23:58:37;93637.69;;;11.59;90.04
